Bucoda, Washington
Current Conditions -  °F | °C
As of 9:35 AM on Sunday 23 Nov 2014 (Local Time) from KCLS Reporting Station
Moderate Rain Moderate Rain  
Wind Chill: 41°   Ceiling: 3000
Heat Index: 45°   Visibility: 3mi
Dew Point: 43°   Wind: 6mph
Humidity: 93%   Direction: NA
Pressure: 30.18"   Gusts: NA
Location:  46.8°N, 122.87°W
Report Text: KCLS 231735Z AUTO VRB05KT 3SM RA FEW005 SCT016 BKN030 07/06 A3018 RMK AO2
Loading
Personal Weather Stations






























Interactive Weather Map New forecast layout! Learn more

10-Day Weather Forecast

Advertisements
Track Severe Weather on mobile